createdAt,value
2022-10-08T00:01:50.334Z,49.10
2022-10-08T00:04:20.785Z,49.20
2022-10-08T00:06:50.891Z,48.40
2022-10-08T00:09:20.774Z,49.90
2022-10-08T00:11:51.843Z,50.20
2022-10-08T00:14:24.636Z,50.00
2022-10-08T00:16:55.078Z,50.20
2022-10-08T00:19:25.191Z,49.20
2022-10-08T00:21:58.234Z,49.70
2022-10-08T00:24:29.025Z,49.80
2022-10-08T00:27:00.788Z,49.60
2022-10-08T00:29:31.419Z,49.80
2022-10-08T00:32:02.207Z,49.70
2022-10-08T00:34:32.870Z,49.80
2022-10-08T00:37:02.984Z,49.80
2022-10-08T00:39:32.847Z,49.30
2022-10-08T00:42:03.764Z,49.00
2022-10-08T00:44:55.226Z,49.80
2022-10-08T00:47:34.793Z,49.60
2022-10-08T00:50:24.819Z,48.70
2022-10-08T00:52:57.665Z,49.70
2022-10-08T00:55:30.595Z,49.40
2022-10-08T00:58:03.327Z,49.00
2022-10-08T01:00:34.278Z,49.40
2022-10-08T01:03:05.095Z,49.20
2022-10-08T01:06:15.517Z,49.50
2022-10-08T01:09:04.792Z,49.50
2022-10-08T01:11:54.469Z,48.20
2022-10-08T01:14:42.903Z,49.40
2022-10-08T01:17:29.879Z,49.60
2022-10-08T01:20:16.376Z,49.30
2022-10-08T01:23:16.358Z,49.80
2022-10-08T01:26:07.329Z,49.50
2022-10-08T01:28:44.220Z,49.10
2022-10-08T01:31:37.513Z,49.10
2022-10-08T01:34:38.298Z,48.10
2022-10-08T01:37:10.118Z,50.00
2022-10-08T01:39:40.309Z,49.20
2022-10-08T01:42:10.417Z,46.90
2022-10-08T01:44:45.125Z,47.60
2022-10-08T01:47:17.716Z,47.70
2022-10-08T01:49:53.247Z,46.80
2022-10-08T01:52:30.579Z,46.20
2022-10-08T01:55:02.389Z,46.40
2022-10-08T01:57:32.903Z,46.60
2022-10-08T02:00:07.482Z,47.10
2022-10-08T02:02:43.545Z,47.90
2022-10-08T02:05:13.690Z,48.30
2022-10-08T02:07:44.372Z,47.80
2022-10-08T02:10:16.980Z,46.50
2022-10-08T02:12:47.436Z,47.30
2022-10-08T02:15:42.411Z,46.50
2022-10-08T02:18:24.414Z,45.80
2022-10-08T02:21:10.262Z,47.80
2022-10-08T02:24:03.060Z,46.40
2022-10-08T02:26:42.922Z,45.90
2022-10-08T02:29:23.873Z,45.90
2022-10-08T02:31:59.777Z,46.90
2022-10-08T02:34:48.391Z,46.80
2022-10-08T02:37:32.587Z,45.50
2022-10-08T02:40:04.612Z,46.10
2022-10-08T02:42:35.273Z,46.70
2022-10-08T02:45:45.255Z,46.80
2022-10-08T02:48:20.209Z,46.50
2022-10-08T02:50:51.056Z,46.90
2022-10-08T02:53:21.036Z,45.30
2022-10-08T02:55:55.997Z,46.30
2022-10-08T02:58:27.237Z,45.90
2022-10-08T03:01:06.551Z,46.20
2022-10-08T03:03:42.319Z,46.40
2022-10-08T03:06:13.130Z,44.80
2022-10-08T03:08:45.048Z,45.70
2022-10-08T03:11:15.055Z,44.90
2022-10-08T03:13:47.291Z,46.20
2022-10-08T03:16:19.976Z,47.00
2022-10-08T03:18:50.279Z,46.00
2022-10-08T03:21:20.352Z,46.50
2022-10-08T03:23:50.837Z,45.50
2022-10-08T03:26:20.969Z,47.70
2022-10-08T03:28:53.390Z,46.70
2022-10-08T03:31:23.398Z,46.20
2022-10-08T03:33:54.331Z,46.90
2022-10-08T03:36:24.667Z,46.10
2022-10-08T03:38:55.037Z,46.40
2022-10-08T03:41:25.226Z,46.70
2022-10-08T03:43:55.434Z,45.80
2022-10-08T03:46:25.403Z,46.10
2022-10-08T03:48:55.360Z,46.70
2022-10-08T03:51:25.240Z,45.80
2022-10-08T03:53:55.255Z,47.00
2022-10-08T03:56:28.232Z,45.40
2022-10-08T03:59:01.796Z,45.30
2022-10-08T04:01:31.778Z,46.70
2022-10-08T04:04:02.019Z,44.50
2022-10-08T04:06:32.467Z,44.40
2022-10-08T04:09:02.653Z,45.50
2022-10-08T04:11:32.563Z,44.80
2022-10-08T04:14:03.090Z,44.50
2022-10-08T04:16:33.514Z,45.40
2022-10-08T04:19:03.750Z,46.60
2022-10-08T04:21:33.691Z,46.00
2022-10-08T04:24:03.638Z,46.50
2022-10-08T04:26:33.590Z,48.00
2022-10-08T04:29:04.464Z,44.90
2022-10-08T04:31:34.485Z,44.00
2022-10-08T04:34:04.534Z,46.00
2022-10-08T04:36:34.596Z,46.80
2022-10-08T04:39:04.650Z,48.30
2022-10-08T04:41:34.514Z,46.60
2022-10-08T04:44:04.858Z,46.00
2022-10-08T04:46:34.963Z,45.00
2022-10-08T04:49:04.963Z,46.50
2022-10-08T04:51:34.914Z,45.40
2022-10-08T04:54:04.837Z,44.90
2022-10-08T04:56:36.776Z,46.20
2022-10-08T04:59:07.538Z,45.30
2022-10-08T05:01:37.482Z,45.30
2022-10-08T05:04:07.901Z,44.50
2022-10-08T05:06:38.194Z,44.10
2022-10-08T05:09:08.521Z,44.70
2022-10-08T05:11:38.441Z,44.40
2022-10-08T05:14:08.858Z,46.20
2022-10-08T05:16:38.842Z,45.10
2022-10-08T05:19:08.766Z,45.00
2022-10-08T05:21:38.710Z,45.00
2022-10-08T05:24:09.542Z,43.90
2022-10-08T05:26:57.377Z,43.80
2022-10-08T05:29:30.757Z,44.20
2022-10-08T05:32:00.783Z,45.20
2022-10-08T05:34:30.775Z,46.50
2022-10-08T05:37:00.728Z,44.20
2022-10-08T05:39:30.919Z,44.60
2022-10-08T05:42:00.807Z,45.50
2022-10-08T05:44:33.778Z,44.50
2022-10-08T05:47:06.473Z,46.50
2022-10-08T05:49:37.974Z,44.00
2022-10-08T05:52:08.250Z,44.30
2022-10-08T05:54:38.527Z,45.80
2022-10-08T05:57:08.915Z,46.60
2022-10-08T05:59:39.360Z,44.80
2022-10-08T06:02:10.686Z,44.20
2022-10-08T06:04:40.810Z,45.50
2022-10-08T06:07:10.778Z,46.60
2022-10-08T06:09:40.787Z,45.40
2022-10-08T06:12:11.291Z,43.20
2022-10-08T06:14:42.281Z,44.70
2022-10-08T06:17:12.157Z,44.20
2022-10-08T06:19:42.391Z,44.80
2022-10-08T06:22:12.420Z,46.20
2022-10-08T06:24:42.346Z,44.90
2022-10-08T06:27:12.777Z,45.00
2022-10-08T06:29:42.727Z,44.50
2022-10-08T06:32:12.705Z,44.80
2022-10-08T06:34:43.261Z,44.80
2022-10-08T06:37:13.382Z,45.40
2022-10-08T06:39:48.169Z,45.60
2022-10-08T06:42:19.039Z,45.00
2022-10-08T06:44:49.496Z,44.20
2022-10-08T06:47:19.525Z,43.40
2022-10-08T06:49:49.488Z,45.40
2022-10-08T06:52:19.458Z,44.80
2022-10-08T06:54:49.345Z,43.60
2022-10-08T06:57:19.709Z,43.80
2022-10-08T06:59:49.644Z,44.00
2022-10-08T07:02:19.772Z,44.30
2022-10-08T07:04:49.701Z,45.30
2022-10-08T07:07:20.783Z,45.10
2022-10-08T07:09:50.677Z,46.50
2022-10-08T07:12:20.813Z,45.20
2022-10-08T07:14:51.326Z,44.10
2022-10-08T07:17:21.917Z,46.10
2022-10-08T07:19:52.285Z,44.70
2022-10-08T07:22:22.429Z,43.80
2022-10-08T07:24:52.957Z,44.70
2022-10-08T07:27:23.653Z,44.80
2022-10-08T07:29:53.992Z,43.70
2022-10-08T07:32:23.858Z,44.10
2022-10-08T07:34:57.841Z,43.60
2022-10-08T07:37:30.101Z,46.30
2022-10-08T07:40:00.282Z,45.00
2022-10-08T07:42:32.910Z,45.00
2022-10-08T07:45:03.120Z,45.60
2022-10-08T07:47:33.052Z,45.80
2022-10-08T07:50:03.004Z,44.70
2022-10-08T07:52:32.925Z,43.80
2022-10-08T07:55:02.833Z,44.30
2022-10-08T07:57:32.782Z,43.20
2022-10-08T08:00:02.654Z,45.90
2022-10-08T08:02:41.952Z,42.90
2022-10-08T08:05:12.354Z,44.50
2022-10-08T08:07:42.716Z,45.00
2022-10-08T08:10:12.676Z,45.20
2022-10-08T08:12:42.573Z,45.40
2022-10-08T08:15:13.025Z,45.10
2022-10-08T08:17:42.907Z,44.80
2022-10-08T08:20:12.811Z,44.50
2022-10-08T08:22:42.687Z,44.70
2022-10-08T08:25:12.608Z,43.70
2022-10-08T08:27:42.499Z,43.40
2022-10-08T08:30:14.279Z,42.90
2022-10-08T08:32:44.790Z,44.70
2022-10-08T08:35:15.553Z,44.30
2022-10-08T08:37:45.642Z,45.10
2022-10-08T08:40:15.978Z,43.20
2022-10-08T08:42:54.416Z,44.10
2022-10-08T08:45:45.266Z,44.30
2022-10-08T08:48:21.049Z,45.50
2022-10-08T08:50:52.272Z,42.60
2022-10-08T08:53:22.562Z,45.30
2022-10-08T08:55:57.677Z,43.60
2022-10-08T08:59:06.614Z,43.60
2022-10-08T09:01:39.127Z,45.20
2022-10-08T09:04:32.433Z,45.30
2022-10-08T09:07:03.150Z,45.10
2022-10-08T09:09:39.885Z,44.60
2022-10-08T09:12:39.786Z,44.20
2022-10-08T09:15:27.939Z,44.40
2022-10-08T09:17:57.925Z,44.90
2022-10-08T09:20:28.342Z,45.40
2022-10-08T09:22:58.697Z,43.30
2022-10-08T09:25:32.544Z,44.50
2022-10-08T09:28:05.325Z,45.30
2022-10-08T09:30:42.337Z,44.40
2022-10-08T09:33:17.441Z,44.50
2022-10-08T09:35:49.978Z,44.30
2022-10-08T09:38:30.366Z,43.80
2022-10-08T09:41:31.463Z,45.30
2022-10-08T09:44:18.452Z,43.80
2022-10-08T09:46:48.859Z,42.90
2022-10-08T09:49:29.438Z,44.10
2022-10-08T09:52:17.188Z,43.30
2022-10-08T09:55:00.686Z,43.20
2022-10-08T09:57:31.815Z,44.60
2022-10-08T10:00:06.162Z,42.00
2022-10-08T10:02:39.951Z,43.60
2022-10-08T10:05:23.259Z,45.00
2022-10-08T10:07:53.618Z,43.90
2022-10-08T10:10:31.087Z,44.50
2022-10-08T10:13:08.120Z,42.60
2022-10-08T10:15:42.924Z,42.10
2022-10-08T10:18:48.845Z,44.50
2022-10-08T10:21:38.588Z,43.50
2022-10-08T10:24:37.767Z,43.60
2022-10-08T10:27:13.028Z,43.90
2022-10-08T10:30:02.324Z,43.20
2022-10-08T10:32:41.999Z,43.30
2022-10-08T10:35:28.965Z,43.00
2022-10-08T10:38:11.398Z,43.30
2022-10-08T10:40:46.574Z,42.70
2022-10-08T10:43:19.843Z,43.80
2022-10-08T10:46:07.373Z,42.90
2022-10-08T10:48:37.364Z,42.20
2022-10-08T10:51:48.272Z,42.80
2022-10-08T10:54:36.032Z,43.50
2022-10-08T10:57:19.160Z,42.90
2022-10-08T11:00:25.300Z,42.10
2022-10-08T11:03:04.440Z,44.00
2022-10-08T11:05:35.185Z,42.90
2022-10-08T11:08:11.376Z,43.70
2022-10-08T11:11:04.319Z,42.70
2022-10-08T11:13:56.203Z,43.80
2022-10-08T11:16:41.156Z,44.10
2022-10-08T11:19:39.667Z,42.70
2022-10-08T11:22:16.454Z,42.50
2022-10-08T11:25:05.036Z,42.80
2022-10-08T11:27:57.073Z,42.10
2022-10-08T11:30:49.509Z,42.00
2022-10-08T11:33:19.681Z,43.80
2022-10-08T11:36:21.951Z,43.90
2022-10-08T11:39:33.129Z,41.90
2022-10-08T11:42:40.680Z,42.50
2022-10-08T11:45:17.589Z,42.90
2022-10-08T11:47:52.240Z,43.30
2022-10-08T11:50:38.575Z,43.30
2022-10-08T11:53:18.017Z,43.50
2022-10-08T11:55:56.194Z,41.80
2022-10-08T11:58:31.568Z,42.40
2022-10-08T12:01:19.375Z,42.60
2022-10-08T12:04:06.320Z,44.20
2022-10-08T12:06:36.856Z,42.00
2022-10-08T12:09:08.129Z,41.90
2022-10-08T12:11:40.952Z,41.80
2022-10-08T12:14:13.996Z,41.80
2022-10-08T12:17:06.861Z,42.50
2022-10-08T12:19:37.172Z,41.70
2022-10-08T12:22:18.806Z,42.70
2022-10-08T12:24:51.888Z,42.40
2022-10-08T12:27:28.362Z,41.80
2022-10-08T12:30:07.630Z,42.70
2022-10-08T12:32:46.708Z,41.90
2022-10-08T12:35:33.067Z,42.90
2022-10-08T12:38:52.464Z,42.60
2022-10-08T12:41:27.435Z,41.90
2022-10-08T12:44:11.388Z,43.60
2022-10-08T12:47:14.847Z,41.50
2022-10-08T12:50:06.476Z,42.10
2022-10-08T12:52:36.937Z,42.00
2022-10-08T12:55:07.366Z,42.10
2022-10-08T12:57:39.117Z,40.70
2022-10-08T13:00:11.656Z,41.30
2022-10-08T13:02:43.526Z,41.60
2022-10-08T13:05:36.857Z,41.50
2022-10-08T13:08:21.845Z,42.50
2022-10-08T13:10:52.700Z,41.30
2022-10-08T13:13:41.114Z,42.60
2022-10-08T13:16:25.109Z,42.90
2022-10-08T13:18:59.686Z,41.50
2022-10-08T13:21:29.721Z,41.90
2022-10-08T13:24:23.630Z,41.60
2022-10-08T13:26:54.835Z,42.00
2022-10-08T13:29:30.752Z,42.30
2022-10-08T13:32:04.365Z,42.10
2022-10-08T13:34:56.005Z,41.40
2022-10-08T13:37:33.708Z,41.60
2022-10-08T13:40:15.876Z,42.20
2022-10-08T13:42:48.076Z,41.30
2022-10-08T13:45:25.141Z,42.70
2022-10-08T13:47:55.899Z,42.50
2022-10-08T13:50:25.807Z,43.00
2022-10-08T13:52:57.332Z,41.70
2022-10-08T13:55:35.050Z,41.50
2022-10-08T13:58:06.998Z,41.50
2022-10-08T14:00:37.949Z,42.20
2022-10-08T14:03:08.045Z,42.10
2022-10-08T14:05:42.455Z,42.10
2022-10-08T14:08:24.988Z,41.00
2022-10-08T14:10:58.995Z,41.10
2022-10-08T14:13:30.802Z,41.00
2022-10-08T14:16:00.689Z,40.50
2022-10-08T14:18:30.624Z,41.20
2022-10-08T14:21:00.562Z,39.90
2022-10-08T14:23:30.492Z,41.20
2022-10-08T14:26:00.616Z,40.90
2022-10-08T14:28:30.575Z,40.90
2022-10-08T14:31:00.732Z,40.70
2022-10-08T14:33:30.658Z,40.60
2022-10-08T14:36:01.821Z,41.10
2022-10-08T14:38:33.961Z,40.90
2022-10-08T14:41:03.852Z,41.00
2022-10-08T14:43:33.838Z,40.40
2022-10-08T14:46:03.766Z,40.90
2022-10-08T14:48:33.832Z,41.20
2022-10-08T14:51:03.775Z,40.10
2022-10-08T14:53:34.191Z,40.30
2022-10-08T14:56:12.602Z,40.30
2022-10-08T14:58:42.868Z,41.40
2022-10-08T15:01:12.884Z,41.60
2022-10-08T15:03:43.194Z,40.50
2022-10-08T15:06:13.131Z,39.80
2022-10-08T15:08:43.152Z,39.70
2022-10-08T15:11:13.029Z,40.70
2022-10-08T15:13:42.912Z,41.40
2022-10-08T15:16:13.904Z,41.00
2022-10-08T15:18:45.396Z,40.60
2022-10-08T15:21:15.429Z,39.80
2022-10-08T15:23:45.427Z,41.00
2022-10-08T15:26:16.779Z,40.20
2022-10-08T15:28:47.394Z,40.70
2022-10-08T15:31:18.973Z,41.20
2022-10-08T15:33:50.189Z,41.20
2022-10-08T15:36:39.547Z,41.50
2022-10-08T15:39:12.970Z,40.40
2022-10-08T15:41:44.822Z,40.10
2022-10-08T15:44:24.419Z,40.60
2022-10-08T15:47:05.661Z,39.60
2022-10-08T15:49:46.970Z,41.60
2022-10-08T15:52:21.153Z,40.40
2022-10-08T15:54:51.102Z,40.00
2022-10-08T15:57:21.163Z,40.70
2022-10-08T15:59:51.098Z,39.70
2022-10-08T16:02:21.024Z,39.70
2022-10-08T16:04:51.076Z,40.00
2022-10-08T16:07:21.184Z,40.70
2022-10-08T16:09:51.183Z,40.60
2022-10-08T16:12:21.090Z,39.70
2022-10-08T16:14:51.057Z,39.50
2022-10-08T16:17:20.977Z,39.80
2022-10-08T16:19:50.924Z,40.00
2022-10-08T16:22:20.857Z,40.30
2022-10-08T16:24:50.756Z,40.90
2022-10-08T16:27:20.712Z,40.20
2022-10-08T16:29:50.608Z,40.10
2022-10-08T16:32:20.544Z,38.60
2022-10-08T16:34:53.451Z,40.60
2022-10-08T16:37:23.662Z,40.00
2022-10-08T16:39:53.542Z,39.00
2022-10-08T16:42:23.521Z,38.80
2022-10-08T16:44:53.520Z,38.80
2022-10-08T16:47:23.670Z,39.90
2022-10-08T16:49:54.839Z,39.60
2022-10-08T16:52:24.741Z,40.00
2022-10-08T16:54:54.901Z,39.40
2022-10-08T16:57:25.999Z,39.50
2022-10-08T16:59:55.938Z,40.10
2022-10-08T17:02:26.280Z,40.00
2022-10-08T17:04:57.618Z,39.10
2022-10-08T17:07:27.557Z,37.70
2022-10-08T17:09:57.504Z,40.80
2022-10-08T17:12:27.445Z,39.40
2022-10-08T17:14:57.367Z,39.80
2022-10-08T17:17:27.585Z,40.20
2022-10-08T17:19:57.472Z,40.20
2022-10-08T17:22:27.378Z,39.60
2022-10-08T17:24:57.361Z,39.60
2022-10-08T17:27:27.279Z,40.20
2022-10-08T17:29:57.202Z,39.40
2022-10-08T17:32:27.102Z,38.70
2022-10-08T17:34:56.994Z,39.70
2022-10-08T17:37:27.320Z,39.70
2022-10-08T17:39:57.294Z,40.00
2022-10-08T17:42:27.147Z,40.30
2022-10-08T17:44:57.118Z,39.50
2022-10-08T17:47:29.229Z,38.20
2022-10-08T17:49:59.366Z,39.50
2022-10-08T17:52:29.289Z,40.10
2022-10-08T17:54:59.244Z,39.70
2022-10-08T17:57:29.459Z,39.10
2022-10-08T17:59:59.397Z,40.20
2022-10-08T18:02:30.624Z,39.90
2022-10-08T18:05:00.509Z,39.50
2022-10-08T18:07:30.996Z,38.60
2022-10-08T18:10:00.918Z,39.70
2022-10-08T18:12:30.919Z,40.00
2022-10-08T18:15:00.990Z,39.90
2022-10-08T18:17:30.909Z,39.50
2022-10-08T18:20:01.492Z,39.00
2022-10-08T18:22:31.920Z,39.70
2022-10-08T18:25:03.614Z,39.30
2022-10-08T18:27:33.741Z,39.50
2022-10-08T18:30:03.675Z,39.60
2022-10-08T18:32:33.613Z,39.50
2022-10-08T18:35:03.522Z,38.70
2022-10-08T18:37:33.471Z,38.70
2022-10-08T18:40:03.482Z,38.70
2022-10-08T18:42:33.518Z,38.80
2022-10-08T18:45:03.505Z,39.30
2022-10-08T18:47:33.431Z,39.20
2022-10-08T18:50:03.439Z,38.70
2022-10-08T18:52:34.414Z,39.60
2022-10-08T18:55:04.441Z,38.60
2022-10-08T18:57:34.331Z,40.00
2022-10-08T19:00:04.578Z,39.90
2022-10-08T19:02:34.612Z,40.00
2022-10-08T19:05:04.699Z,39.60
2022-10-08T19:07:34.822Z,38.70
2022-10-08T19:10:04.939Z,39.70
2022-10-08T19:12:34.946Z,39.00
2022-10-08T19:15:05.102Z,38.90
2022-10-08T19:17:35.042Z,38.30
2022-10-08T19:20:04.987Z,39.20
2022-10-08T19:22:34.882Z,38.80
2022-10-08T19:25:04.849Z,40.00
2022-10-08T19:27:34.741Z,39.00
2022-10-08T19:30:04.712Z,38.60
2022-10-08T19:32:34.645Z,40.00
2022-10-08T19:35:04.632Z,38.20
2022-10-08T19:37:34.509Z,37.60
2022-10-08T19:40:05.008Z,38.50
2022-10-08T19:42:34.970Z,39.30
2022-10-08T19:45:04.990Z,39.40
2022-10-08T19:47:37.007Z,38.70
2022-10-08T19:50:07.442Z,38.60
2022-10-08T19:52:37.366Z,38.40
2022-10-08T19:55:07.868Z,39.00
2022-10-08T19:57:37.888Z,38.60
2022-10-08T20:00:09.591Z,38.70
2022-10-08T20:02:39.513Z,38.80
2022-10-08T20:05:10.087Z,38.80
2022-10-08T20:07:41.083Z,39.30
2022-10-08T20:10:11.437Z,38.40
2022-10-08T20:12:41.403Z,39.60
2022-10-08T20:15:11.834Z,38.60
2022-10-08T20:17:41.784Z,37.60
2022-10-08T20:20:31.570Z,38.90
2022-10-08T20:23:02.095Z,39.70
2022-10-08T20:25:32.024Z,37.90
2022-10-08T20:28:02.024Z,38.30
2022-10-08T20:30:32.890Z,39.00
2022-10-08T20:33:02.838Z,38.50
2022-10-08T20:35:32.973Z,38.10
2022-10-08T20:38:02.905Z,39.20
2022-10-08T20:40:32.846Z,39.10
2022-10-08T20:43:02.786Z,39.00
2022-10-08T20:45:32.714Z,39.40
2022-10-08T20:48:03.027Z,39.20
2022-10-08T20:50:32.964Z,38.90
2022-10-08T20:53:02.853Z,38.70
2022-10-08T20:55:32.778Z,38.90
2022-10-08T20:58:02.660Z,38.30
2022-10-08T21:00:34.072Z,38.60
2022-10-08T21:03:04.022Z,38.10
2022-10-08T21:05:39.326Z,39.60
2022-10-08T21:08:09.299Z,37.90
2022-10-08T21:10:39.238Z,38.80
2022-10-08T21:13:09.095Z,38.40
2022-10-08T21:15:39.034Z,38.40
2022-10-08T21:18:09.018Z,38.90
2022-10-08T21:20:38.932Z,38.80
2022-10-08T21:23:08.831Z,38.70
2022-10-08T21:25:38.788Z,38.00
2022-10-08T21:28:08.740Z,38.90
2022-10-08T21:30:38.721Z,38.30
2022-10-08T21:33:08.645Z,38.40
2022-10-08T21:35:39.032Z,38.80
2022-10-08T21:38:08.967Z,39.00
2022-10-08T21:40:38.869Z,38.80
2022-10-08T21:43:08.797Z,38.10
2022-10-08T21:45:38.830Z,37.90
2022-10-08T21:48:08.795Z,38.30
2022-10-08T21:50:38.770Z,38.50
2022-10-08T21:53:08.673Z,38.60
2022-10-08T21:55:38.610Z,38.70
2022-10-08T21:58:08.560Z,38.70
2022-10-08T22:00:38.573Z,38.90
2022-10-08T22:03:08.550Z,38.80
2022-10-08T22:05:38.398Z,38.90
2022-10-08T22:08:08.328Z,38.80
2022-10-08T22:10:39.296Z,38.70
2022-10-08T22:13:09.284Z,38.00
2022-10-08T22:15:39.289Z,38.40
2022-10-08T22:18:09.183Z,38.50
2022-10-08T22:20:39.099Z,37.50
2022-10-08T22:23:08.997Z,38.60
2022-10-08T22:25:38.886Z,38.60
2022-10-08T22:28:08.809Z,38.00
2022-10-08T22:30:39.600Z,39.00
2022-10-08T22:33:09.566Z,38.50
2022-10-08T22:35:39.454Z,38.80
2022-10-08T22:38:09.323Z,38.30
2022-10-08T22:40:39.677Z,38.30
2022-10-08T22:43:09.578Z,39.20
2022-10-08T22:45:42.780Z,38.60
2022-10-08T22:48:12.737Z,37.80
2022-10-08T22:50:42.593Z,38.20
2022-10-08T22:53:12.559Z,37.60
2022-10-08T22:55:43.197Z,38.70
2022-10-08T22:58:13.513Z,39.00
2022-10-08T23:00:43.824Z,38.20
2022-10-08T23:03:14.941Z,38.60
2022-10-08T23:05:45.074Z,38.80
2022-10-08T23:08:15.013Z,38.40
2022-10-08T23:10:45.557Z,38.80
2022-10-08T23:13:15.527Z,38.80
2022-10-08T23:15:45.379Z,38.90
2022-10-08T23:18:15.809Z,37.80
2022-10-08T23:20:46.254Z,37.90
2022-10-08T23:23:16.192Z,39.10
2022-10-08T23:25:55.256Z,38.60
2022-10-08T23:28:25.350Z,37.50
2022-10-08T23:30:55.931Z,37.80
2022-10-08T23:33:26.484Z,38.20
2022-10-08T23:35:57.224Z,37.60
2022-10-08T23:38:27.476Z,38.00
2022-10-08T23:41:02.172Z,38.10
2022-10-08T23:43:35.399Z,38.20
2022-10-08T23:46:06.288Z,37.90
2022-10-08T23:48:36.268Z,38.00
2022-10-08T23:51:06.744Z,38.30
2022-10-08T23:53:36.825Z,38.10
2022-10-08T23:56:07.214Z,38.40
2022-10-08T23:58:37.123Z,38.90
